sensor_id;sensor_type;location;lat;lon;timestamp;P1;durP1;ratioP1;P2;durP2;ratioP2
42294;SDS011;27947;47.556;18.718;2023-12-20T00:02:08;146.38;;;23.85;;
42294;SDS011;27947;47.556;18.718;2023-12-20T00:04:33;209.30;;;26.30;;
42294;SDS011;27947;47.556;18.718;2023-12-20T00:06:58;94.45;;;24.25;;
42294;SDS011;27947;47.556;18.718;2023-12-20T00:09:24;129.35;;;27.45;;
42294;SDS011;27947;47.556;18.718;2023-12-20T00:11:49;118.93;;;25.38;;
42294;SDS011;27947;47.556;18.718;2023-12-20T00:14:14;77.97;;;25.05;;
42294;SDS011;27947;47.556;18.718;2023-12-20T00:16:39;205.23;;;28.00;;
42294;SDS011;27947;47.556;18.718;2023-12-20T00:19:05;94.32;;;24.05;;
42294;SDS011;27947;47.556;18.718;2023-12-20T00:21:30;168.52;;;27.25;;
42294;SDS011;27947;47.556;18.718;2023-12-20T00:23:55;72.40;;;23.92;;
42294;SDS011;27947;47.556;18.718;2023-12-20T00:26:20;96.88;;;25.15;;
42294;SDS011;27947;47.556;18.718;2023-12-20T00:28:46;133.90;;;24.75;;
42294;SDS011;27947;47.556;18.718;2023-12-20T00:31:11;103.10;;;25.80;;
42294;SDS011;27947;47.556;18.718;2023-12-20T00:33:36;123.15;;;27.88;;
42294;SDS011;27947;47.556;18.718;2023-12-20T00:36:01;138.38;;;26.92;;
42294;SDS011;27947;47.556;18.718;2023-12-20T00:38:27;147.60;;;26.73;;
42294;SDS011;27947;47.556;18.718;2023-12-20T00:40:52;166.40;;;27.70;;
42294;SDS011;27947;47.556;18.718;2023-12-20T00:43:17;85.05;;;25.23;;
42294;SDS011;27947;47.556;18.718;2023-12-20T00:45:43;114.60;;;25.83;;
42294;SDS011;27947;47.556;18.718;2023-12-20T00:48:08;141.20;;;26.42;;
42294;SDS011;27947;47.556;18.718;2023-12-20T00:50:33;228.60;;;29.77;;
42294;SDS011;27947;47.556;18.718;2023-12-20T00:52:59;133.40;;;28.13;;
42294;SDS011;27947;47.556;18.718;2023-12-20T00:55:24;112.20;;;25.52;;
42294;SDS011;27947;47.556;18.718;2023-12-20T00:57:49;144.73;;;27.70;;
42294;SDS011;27947;47.556;18.718;2023-12-20T01:00:14;122.93;;;27.70;;
42294;SDS011;27947;47.556;18.718;2023-12-20T01:02:40;87.63;;;25.27;;
42294;SDS011;27947;47.556;18.718;2023-12-20T01:05:05;108.78;;;26.30;;
42294;SDS011;27947;47.556;18.718;2023-12-20T01:07:32;85.88;;;25.90;;
42294;SDS011;27947;47.556;18.718;2023-12-20T01:09:57;70.13;;;26.23;;
42294;SDS011;27947;47.556;18.718;2023-12-20T01:12:22;97.32;;;27.55;;
42294;SDS011;27947;47.556;18.718;2023-12-20T01:14:48;122.45;;;27.50;;
42294;SDS011;27947;47.556;18.718;2023-12-20T01:17:13;113.63;;;29.17;;
42294;SDS011;27947;47.556;18.718;2023-12-20T01:19:38;143.13;;;28.10;;
42294;SDS011;27947;47.556;18.718;2023-12-20T01:22:04;117.65;;;27.02;;
42294;SDS011;27947;47.556;18.718;2023-12-20T01:24:29;205.23;;;30.40;;
42294;SDS011;27947;47.556;18.718;2023-12-20T01:26:54;139.25;;;30.70;;
42294;SDS011;27947;47.556;18.718;2023-12-20T01:29:19;185.40;;;29.67;;
42294;SDS011;27947;47.556;18.718;2023-12-20T01:31:45;123.50;;;28.60;;
42294;SDS011;27947;47.556;18.718;2023-12-20T01:34:10;115.28;;;28.88;;
42294;SDS011;27947;47.556;18.718;2023-12-20T01:36:35;150.07;;;30.42;;
42294;SDS011;27947;47.556;18.718;2023-12-20T01:39:00;131.23;;;28.70;;
42294;SDS011;27947;47.556;18.718;2023-12-20T01:41:26;131.10;;;29.33;;
42294;SDS011;27947;47.556;18.718;2023-12-20T01:43:51;80.13;;;27.95;;
42294;SDS011;27947;47.556;18.718;2023-12-20T01:46:18;184.63;;;30.45;;
42294;SDS011;27947;47.556;18.718;2023-12-20T01:48:43;131.25;;;30.10;;
42294;SDS011;27947;47.556;18.718;2023-12-20T01:51:09;144.15;;;28.77;;
42294;SDS011;27947;47.556;18.718;2023-12-20T01:53:35;174.60;;;30.33;;
42294;SDS011;27947;47.556;18.718;2023-12-20T01:56:01;197.57;;;31.92;;
42294;SDS011;27947;47.556;18.718;2023-12-20T01:58:26;97.90;;;29.52;;
42294;SDS011;27947;47.556;18.718;2023-12-20T02:00:52;139.45;;;30.77;;
42294;SDS011;27947;47.556;18.718;2023-12-20T02:03:18;97.72;;;30.10;;
42294;SDS011;27947;47.556;18.718;2023-12-20T02:05:44;94.22;;;29.67;;
42294;SDS011;27947;47.556;18.718;2023-12-20T02:08:09;98.60;;;30.90;;
42294;SDS011;27947;47.556;18.718;2023-12-20T02:10:34;93.53;;;30.40;;
42294;SDS011;27947;47.556;18.718;2023-12-20T02:13:00;108.15;;;30.70;;
42294;SDS011;27947;47.556;18.718;2023-12-20T02:15:25;148.48;;;29.05;;
42294;SDS011;27947;47.556;18.718;2023-12-20T02:17:50;101.95;;;29.45;;
42294;SDS011;27947;47.556;18.718;2023-12-20T02:20:16;96.50;;;28.48;;
42294;SDS011;27947;47.556;18.718;2023-12-20T02:22:41;114.90;;;30.55;;
42294;SDS011;27947;47.556;18.718;2023-12-20T02:25:06;141.93;;;28.88;;
42294;SDS011;27947;47.556;18.718;2023-12-20T02:27:32;121.65;;;30.52;;
42294;SDS011;27947;47.556;18.718;2023-12-20T02:29:57;79.35;;;29.05;;
42294;SDS011;27947;47.556;18.718;2023-12-20T02:32:22;167.85;;;31.75;;
42294;SDS011;27947;47.556;18.718;2023-12-20T02:34:51;121.40;;;30.73;;
42294;SDS011;27947;47.556;18.718;2023-12-20T02:37:16;131.02;;;30.55;;
42294;SDS011;27947;47.556;18.718;2023-12-20T02:39:41;222.23;;;30.83;;
42294;SDS011;27947;47.556;18.718;2023-12-20T02:42:06;209.45;;;32.92;;
42294;SDS011;27947;47.556;18.718;2023-12-20T02:44:32;243.32;;;31.42;;
42294;SDS011;27947;47.556;18.718;2023-12-20T02:46:57;125.18;;;28.77;;
42294;SDS011;27947;47.556;18.718;2023-12-20T02:49:22;205.35;;;31.88;;
42294;SDS011;27947;47.556;18.718;2023-12-20T02:51:47;119.18;;;28.85;;
42294;SDS011;27947;47.556;18.718;2023-12-20T02:54:13;121.55;;;28.85;;
42294;SDS011;27947;47.556;18.718;2023-12-20T02:56:38;73.25;;;29.00;;
42294;SDS011;27947;47.556;18.718;2023-12-20T02:59:03;174.93;;;30.05;;
42294;SDS011;27947;47.556;18.718;2023-12-20T03:01:31;93.30;;;30.30;;
42294;SDS011;27947;47.556;18.718;2023-12-20T03:03:56;89.10;;;29.80;;
42294;SDS011;27947;47.556;18.718;2023-12-20T03:06:21;130.20;;;30.15;;
42294;SDS011;27947;47.556;18.718;2023-12-20T03:08:47;92.68;;;30.50;;
42294;SDS011;27947;47.556;18.718;2023-12-20T03:11:12;135.77;;;32.25;;
42294;SDS011;27947;47.556;18.718;2023-12-20T03:13:37;94.68;;;29.25;;
42294;SDS011;27947;47.556;18.718;2023-12-20T03:16:09;94.13;;;29.73;;
42294;SDS011;27947;47.556;18.718;2023-12-20T03:18:35;82.28;;;29.02;;
42294;SDS011;27947;47.556;18.718;2023-12-20T03:21:00;105.93;;;30.80;;
42294;SDS011;27947;47.556;18.718;2023-12-20T03:23:25;77.95;;;28.75;;
42294;SDS011;27947;47.556;18.718;2023-12-20T03:25:52;138.13;;;30.02;;
42294;SDS011;27947;47.556;18.718;2023-12-20T03:28:17;146.13;;;31.85;;
42294;SDS011;27947;47.556;18.718;2023-12-20T03:30:42;119.18;;;30.23;;
42294;SDS011;27947;47.556;18.718;2023-12-20T03:33:08;128.45;;;29.45;;
42294;SDS011;27947;47.556;18.718;2023-12-20T03:35:33;134.43;;;29.58;;
42294;SDS011;27947;47.556;18.718;2023-12-20T03:37:58;126.10;;;29.75;;
42294;SDS011;27947;47.556;18.718;2023-12-20T03:40:25;119.95;;;27.77;;
42294;SDS011;27947;47.556;18.718;2023-12-20T03:42:50;101.43;;;27.98;;
42294;SDS011;27947;47.556;18.718;2023-12-20T03:45:16;96.47;;;27.55;;
42294;SDS011;27947;47.556;18.718;2023-12-20T03:47:41;86.22;;;29.20;;
42294;SDS011;27947;47.556;18.718;2023-12-20T03:50:06;84.22;;;28.55;;
42294;SDS011;27947;47.556;18.718;2023-12-20T03:52:31;88.30;;;29.45;;
42294;SDS011;27947;47.556;18.718;2023-12-20T03:54:57;116.35;;;29.35;;
42294;SDS011;27947;47.556;18.718;2023-12-20T03:57:22;117.30;;;29.92;;
42294;SDS011;27947;47.556;18.718;2023-12-20T03:59:47;107.28;;;29.67;;
42294;SDS011;27947;47.556;18.718;2023-12-20T04:02:12;85.80;;;31.23;;
42294;SDS011;27947;47.556;18.718;2023-12-20T04:04:38;84.93;;;30.33;;
42294;SDS011;27947;47.556;18.718;2023-12-20T04:07:03;153.02;;;29.17;;
42294;SDS011;27947;47.556;18.718;2023-12-20T04:09:28;151.50;;;31.27;;
42294;SDS011;27947;47.556;18.718;2023-12-20T04:11:53;140.85;;;29.15;;
42294;SDS011;27947;47.556;18.718;2023-12-20T04:14:19;146.20;;;28.77;;
42294;SDS011;27947;47.556;18.718;2023-12-20T04:16:44;166.55;;;28.65;;
42294;SDS011;27947;47.556;18.718;2023-12-20T04:19:10;230.00;;;30.50;;
42294;SDS011;27947;47.556;18.718;2023-12-20T04:21:35;152.43;;;28.65;;
42294;SDS011;27947;47.556;18.718;2023-12-20T04:24:01;77.63;;;27.15;;
42294;SDS011;27947;47.556;18.718;2023-12-20T04:26:26;121.18;;;29.45;;
42294;SDS011;27947;47.556;18.718;2023-12-20T04:28:52;216.52;;;28.33;;
42294;SDS011;27947;47.556;18.718;2023-12-20T04:31:17;98.50;;;27.77;;
42294;SDS011;27947;47.556;18.718;2023-12-20T04:33:43;131.68;;;29.48;;
42294;SDS011;27947;47.556;18.718;2023-12-20T04:36:08;176.38;;;31.33;;
42294;SDS011;27947;47.556;18.718;2023-12-20T04:38:34;211.30;;;28.63;;
42294;SDS011;27947;47.556;18.718;2023-12-20T04:40:59;233.38;;;30.55;;
42294;SDS011;27947;47.556;18.718;2023-12-20T04:43:25;327.85;;;30.23;;
42294;SDS011;27947;47.556;18.718;2023-12-20T04:45:50;219.13;;;27.38;;
42294;SDS011;27947;47.556;18.718;2023-12-20T04:48:16;432.15;;;31.08;;
42294;SDS011;27947;47.556;18.718;2023-12-20T04:50:41;232.07;;;27.60;;
42294;SDS011;27947;47.556;18.718;2023-12-20T04:53:07;185.73;;;27.40;;
42294;SDS011;27947;47.556;18.718;2023-12-20T04:55:32;257.75;;;31.48;;
42294;SDS011;27947;47.556;18.718;2023-12-20T04:57:58;191.30;;;28.35;;
42294;SDS011;27947;47.556;18.718;2023-12-20T05:00:23;116.75;;;27.05;;
42294;SDS011;27947;47.556;18.718;2023-12-20T05:02:49;149.43;;;26.27;;
42294;SDS011;27947;47.556;18.718;2023-12-20T05:05:14;100.03;;;26.13;;
42294;SDS011;27947;47.556;18.718;2023-12-20T05:07:42;70.68;;;26.70;;
42294;SDS011;27947;47.556;18.718;2023-12-20T05:10:08;83.90;;;24.90;;
42294;SDS011;27947;47.556;18.718;2023-12-20T05:12:34;71.65;;;23.90;;
42294;SDS011;27947;47.556;18.718;2023-12-20T05:14:59;80.30;;;23.95;;
42294;SDS011;27947;47.556;18.718;2023-12-20T05:17:25;70.95;;;25.73;;
42294;SDS011;27947;47.556;18.718;2023-12-20T05:19:50;60.13;;;24.58;;
42294;SDS011;27947;47.556;18.718;2023-12-20T05:22:16;52.38;;;24.40;;
42294;SDS011;27947;47.556;18.718;2023-12-20T05:24:42;53.20;;;24.27;;
42294;SDS011;27947;47.556;18.718;2023-12-20T05:27:07;52.80;;;24.35;;
42294;SDS011;27947;47.556;18.718;2023-12-20T05:29:33;113.43;;;24.27;;
42294;SDS011;27947;47.556;18.718;2023-12-20T05:31:58;97.90;;;24.08;;
42294;SDS011;27947;47.556;18.718;2023-12-20T05:34:24;117.32;;;23.55;;
42294;SDS011;27947;47.556;18.718;2023-12-20T05:36:50;101.40;;;23.35;;
42294;SDS011;27947;47.556;18.718;2023-12-20T05:39:15;108.75;;;23.88;;
42294;SDS011;27947;47.556;18.718;2023-12-20T05:41:41;70.68;;;22.98;;
42294;SDS011;27947;47.556;18.718;2023-12-20T05:44:06;62.38;;;22.85;;
42294;SDS011;27947;47.556;18.718;2023-12-20T05:46:32;120.85;;;24.80;;
42294;SDS011;27947;47.556;18.718;2023-12-20T05:48:58;103.75;;;23.77;;
42294;SDS011;27947;47.556;18.718;2023-12-20T05:51:23;90.95;;;26.00;;
42294;SDS011;27947;47.556;18.718;2023-12-20T05:53:49;86.55;;;27.45;;
42294;SDS011;27947;47.556;18.718;2023-12-20T05:56:15;156.23;;;27.10;;
42294;SDS011;27947;47.556;18.718;2023-12-20T05:58:40;141.68;;;24.23;;
42294;SDS011;27947;47.556;18.718;2023-12-20T06:01:06;127.68;;;22.30;;
42294;SDS011;27947;47.556;18.718;2023-12-20T06:03:33;122.47;;;23.23;;
42294;SDS011;27947;47.556;18.718;2023-12-20T06:05:58;158.57;;;22.70;;
42294;SDS011;27947;47.556;18.718;2023-12-20T06:08:25;54.67;;;22.23;;
42294;SDS011;27947;47.556;18.718;2023-12-20T06:10:51;78.68;;;24.83;;
42294;SDS011;27947;47.556;18.718;2023-12-20T06:13:16;107.93;;;22.33;;
42294;SDS011;27947;47.556;18.718;2023-12-20T06:15:42;119.15;;;21.20;;
42294;SDS011;27947;47.556;18.718;2023-12-20T06:18:07;48.67;;;21.75;;
42294;SDS011;27947;47.556;18.718;2023-12-20T06:20:32;53.08;;;21.85;;
42294;SDS011;27947;47.556;18.718;2023-12-20T06:22:58;49.70;;;21.33;;
42294;SDS011;27947;47.556;18.718;2023-12-20T06:25:23;47.40;;;22.13;;
42294;SDS011;27947;47.556;18.718;2023-12-20T06:27:49;52.42;;;22.20;;
42294;SDS011;27947;47.556;18.718;2023-12-20T06:30:15;65.25;;;23.77;;
42294;SDS011;27947;47.556;18.718;2023-12-20T06:32:40;63.90;;;22.38;;
42294;SDS011;27947;47.556;18.718;2023-12-20T06:35:07;64.32;;;22.83;;
42294;SDS011;27947;47.556;18.718;2023-12-20T06:37:33;64.95;;;20.88;;
42294;SDS011;27947;47.556;18.718;2023-12-20T06:39:58;69.25;;;20.90;;
42294;SDS011;27947;47.556;18.718;2023-12-20T06:42:23;56.58;;;19.88;;
42294;SDS011;27947;47.556;18.718;2023-12-20T06:44:48;62.25;;;21.10;;
42294;SDS011;27947;47.556;18.718;2023-12-20T06:47:14;44.63;;;19.95;;
42294;SDS011;27947;47.556;18.718;2023-12-20T06:49:40;70.22;;;20.23;;
42294;SDS011;27947;47.556;18.718;2023-12-20T06:52:05;52.25;;;19.15;;
42294;SDS011;27947;47.556;18.718;2023-12-20T06:54:30;79.32;;;21.10;;
42294;SDS011;27947;47.556;18.718;2023-12-20T06:56:56;75.18;;;19.10;;
42294;SDS011;27947;47.556;18.718;2023-12-20T06:59:21;67.07;;;18.58;;
42294;SDS011;27947;47.556;18.718;2023-12-20T07:01:49;78.40;;;19.95;;
42294;SDS011;27947;47.556;18.718;2023-12-20T07:04:15;62.50;;;18.48;;
42294;SDS011;27947;47.556;18.718;2023-12-20T07:06:41;84.30;;;21.45;;
42294;SDS011;27947;47.556;18.718;2023-12-20T07:09:07;54.47;;;20.42;;
42294;SDS011;27947;47.556;18.718;2023-12-20T07:11:32;77.32;;;20.55;;
42294;SDS011;27947;47.556;18.718;2023-12-20T07:13:57;80.22;;;21.92;;
42294;SDS011;27947;47.556;18.718;2023-12-20T07:16:23;71.72;;;20.90;;
42294;SDS011;27947;47.556;18.718;2023-12-20T07:18:48;75.38;;;21.40;;
42294;SDS011;27947;47.556;18.718;2023-12-20T07:21:13;69.32;;;20.30;;
42294;SDS011;27947;47.556;18.718;2023-12-20T07:23:39;69.15;;;22.08;;
42294;SDS011;27947;47.556;18.718;2023-12-20T07:26:04;81.57;;;22.50;;
42294;SDS011;27947;47.556;18.718;2023-12-20T07:28:29;61.50;;;21.55;;
42294;SDS011;27947;47.556;18.718;2023-12-20T07:30:55;64.43;;;23.15;;
42294;SDS011;27947;47.556;18.718;2023-12-20T07:33:20;70.30;;;21.67;;
42294;SDS011;27947;47.556;18.718;2023-12-20T07:35:45;62.65;;;22.38;;
42294;SDS011;27947;47.556;18.718;2023-12-20T07:38:11;64.70;;;21.98;;
42294;SDS011;27947;47.556;18.718;2023-12-20T07:40:37;57.33;;;21.00;;
42294;SDS011;27947;47.556;18.718;2023-12-20T07:43:04;72.15;;;23.52;;
42294;SDS011;27947;47.556;18.718;2023-12-20T07:45:29;92.20;;;24.42;;
42294;SDS011;27947;47.556;18.718;2023-12-20T07:47:54;69.50;;;23.75;;
42294;SDS011;27947;47.556;18.718;2023-12-20T07:50:20;89.65;;;24.45;;
42294;SDS011;27947;47.556;18.718;2023-12-20T07:52:45;89.38;;;26.60;;
42294;SDS011;27947;47.556;18.718;2023-12-20T07:55:10;110.60;;;26.88;;
42294;SDS011;27947;47.556;18.718;2023-12-20T07:57:36;136.07;;;29.23;;
42294;SDS011;27947;47.556;18.718;2023-12-20T08:00:01;104.00;;;29.50;;
42294;SDS011;27947;47.556;18.718;2023-12-20T08:02:29;97.45;;;28.92;;
42294;SDS011;27947;47.556;18.718;2023-12-20T08:04:55;123.95;;;32.85;;
42294;SDS011;27947;47.556;18.718;2023-12-20T08:07:20;92.75;;;31.33;;
42294;SDS011;27947;47.556;18.718;2023-12-20T08:09:45;158.13;;;32.63;;
42294;SDS011;27947;47.556;18.718;2023-12-20T08:12:11;167.65;;;34.00;;
42294;SDS011;27947;47.556;18.718;2023-12-20T08:14:36;142.02;;;34.22;;
42294;SDS011;27947;47.556;18.718;2023-12-20T08:17:02;141.23;;;34.72;;
42294;SDS011;27947;47.556;18.718;2023-12-20T08:19:27;102.00;;;32.25;;
42294;SDS011;27947;47.556;18.718;2023-12-20T08:21:53;204.48;;;33.20;;
42294;SDS011;27947;47.556;18.718;2023-12-20T08:24:18;160.18;;;32.30;;
42294;SDS011;27947;47.556;18.718;2023-12-20T08:26:43;162.02;;;32.95;;
42294;SDS011;27947;47.556;18.718;2023-12-20T08:29:08;98.60;;;31.35;;
42294;SDS011;27947;47.556;18.718;2023-12-20T08:31:34;128.45;;;32.70;;
42294;SDS011;27947;47.556;18.718;2023-12-20T08:33:59;188.73;;;34.13;;
42294;SDS011;27947;47.556;18.718;2023-12-20T08:36:24;107.32;;;30.98;;
42294;SDS011;27947;47.556;18.718;2023-12-20T08:38:50;120.97;;;32.00;;
42294;SDS011;27947;47.556;18.718;2023-12-20T08:41:16;144.38;;;33.67;;
42294;SDS011;27947;47.556;18.718;2023-12-20T08:43:41;140.75;;;34.65;;
42294;SDS011;27947;47.556;18.718;2023-12-20T08:46:08;214.77;;;33.97;;
42294;SDS011;27947;47.556;18.718;2023-12-20T08:48:34;159.45;;;35.65;;
42294;SDS011;27947;47.556;18.718;2023-12-20T08:51:00;135.88;;;34.03;;
42294;SDS011;27947;47.556;18.718;2023-12-20T08:53:25;84.88;;;32.42;;
42294;SDS011;27947;47.556;18.718;2023-12-20T08:55:50;127.10;;;32.53;;
42294;SDS011;27947;47.556;18.718;2023-12-20T08:58:16;77.68;;;32.08;;
42294;SDS011;27947;47.556;18.718;2023-12-20T09:00:41;71.20;;;29.83;;
42294;SDS011;27947;47.556;18.718;2023-12-20T09:03:06;74.15;;;30.10;;
42294;SDS011;27947;47.556;18.718;2023-12-20T09:05:32;45.47;;;22.67;;
42294;SDS011;27947;47.556;18.718;2023-12-20T09:07:57;85.93;;;32.17;;
42294;SDS011;27947;47.556;18.718;2023-12-20T09:10:22;105.60;;;29.73;;
42294;SDS011;27947;47.556;18.718;2023-12-20T09:12:49;87.32;;;31.90;;
42294;SDS011;27947;47.556;18.718;2023-12-20T09:15:14;174.65;;;32.05;;
42294;SDS011;27947;47.556;18.718;2023-12-20T09:17:40;102.78;;;33.58;;
42294;SDS011;27947;47.556;18.718;2023-12-20T09:20:06;209.05;;;38.75;;
42294;SDS011;27947;47.556;18.718;2023-12-20T09:22:33;95.32;;;32.50;;
42294;SDS011;27947;47.556;18.718;2023-12-20T09:24:58;99.70;;;34.05;;
42294;SDS011;27947;47.556;18.718;2023-12-20T09:27:24;104.90;;;32.58;;
42294;SDS011;27947;47.556;18.718;2023-12-20T09:29:49;172.15;;;28.92;;
42294;SDS011;27947;47.556;18.718;2023-12-20T09:32:14;126.03;;;29.10;;
42294;SDS011;27947;47.556;18.718;2023-12-20T09:34:40;82.95;;;28.60;;
42294;SDS011;27947;47.556;18.718;2023-12-20T09:37:06;129.88;;;30.50;;
42294;SDS011;27947;47.556;18.718;2023-12-20T09:39:32;156.48;;;30.92;;
42294;SDS011;27947;47.556;18.718;2023-12-20T09:42:04;68.22;;;28.98;;
42294;SDS011;27947;47.556;18.718;2023-12-20T09:44:30;198.30;;;32.88;;
42294;SDS011;27947;47.556;18.718;2023-12-20T09:46:56;65.93;;;28.98;;
42294;SDS011;27947;47.556;18.718;2023-12-20T09:49:21;60.88;;;28.25;;
42294;SDS011;27947;47.556;18.718;2023-12-20T09:51:47;50.95;;;24.65;;
42294;SDS011;27947;47.556;18.718;2023-12-20T09:54:19;45.33;;;21.98;;
42294;SDS011;27947;47.556;18.718;2023-12-20T09:56:45;41.50;;;20.65;;
42294;SDS011;27947;47.556;18.718;2023-12-20T09:59:10;44.17;;;20.25;;
42294;SDS011;27947;47.556;18.718;2023-12-20T10:01:36;39.08;;;19.70;;
42294;SDS011;27947;47.556;18.718;2023-12-20T10:04:07;36.40;;;19.45;;
42294;SDS011;27947;47.556;18.718;2023-12-20T10:06:41;34.42;;;18.95;;
42294;SDS011;27947;47.556;18.718;2023-12-20T10:09:06;36.42;;;18.60;;
42294;SDS011;27947;47.556;18.718;2023-12-20T10:11:31;37.13;;;19.08;;
42294;SDS011;27947;47.556;18.718;2023-12-20T10:14:00;35.05;;;18.67;;
42294;SDS011;27947;47.556;18.718;2023-12-20T10:16:26;35.03;;;17.83;;
42294;SDS011;27947;47.556;18.718;2023-12-20T10:18:55;37.10;;;19.38;;
42294;SDS011;27947;47.556;18.718;2023-12-20T10:21:21;33.25;;;18.65;;
42294;SDS011;27947;47.556;18.718;2023-12-20T10:23:47;32.83;;;18.13;;
42294;SDS011;27947;47.556;18.718;2023-12-20T10:26:20;35.75;;;18.45;;
42294;SDS011;27947;47.556;18.718;2023-12-20T10:28:46;34.42;;;18.33;;
42294;SDS011;27947;47.556;18.718;2023-12-20T10:31:26;36.72;;;18.98;;
42294;SDS011;27947;47.556;18.718;2023-12-20T10:33:51;31.88;;;16.92;;
42294;SDS011;27947;47.556;18.718;2023-12-20T10:36:17;32.50;;;16.63;;
42294;SDS011;27947;47.556;18.718;2023-12-20T10:38:42;29.13;;;16.35;;
42294;SDS011;27947;47.556;18.718;2023-12-20T10:41:07;34.85;;;17.42;;
42294;SDS011;27947;47.556;18.718;2023-12-20T10:43:33;34.05;;;17.85;;
42294;SDS011;27947;47.556;18.718;2023-12-20T10:45:59;30.15;;;16.85;;
42294;SDS011;27947;47.556;18.718;2023-12-20T10:48:24;34.40;;;17.33;;
42294;SDS011;27947;47.556;18.718;2023-12-20T10:50:55;30.88;;;17.70;;
42294;SDS011;27947;47.556;18.718;2023-12-20T10:53:20;31.13;;;17.10;;
42294;SDS011;27947;47.556;18.718;2023-12-20T10:55:46;29.50;;;16.33;;
42294;SDS011;27947;47.556;18.718;2023-12-20T10:58:12;32.85;;;16.80;;
42294;SDS011;27947;47.556;18.718;2023-12-20T11:00:39;33.60;;;16.58;;
42294;SDS011;27947;47.556;18.718;2023-12-20T11:03:08;31.17;;;16.77;;
42294;SDS011;27947;47.556;18.718;2023-12-20T11:05:50;29.70;;;16.27;;
42294;SDS011;27947;47.556;18.718;2023-12-20T11:08:32;27.08;;;16.08;;
42294;SDS011;27947;47.556;18.718;2023-12-20T11:11:06;27.30;;;15.55;;
42294;SDS011;27947;47.556;18.718;2023-12-20T11:13:36;31.00;;;16.38;;
42294;SDS011;27947;47.556;18.718;2023-12-20T11:16:02;32.00;;;16.52;;
42294;SDS011;27947;47.556;18.718;2023-12-20T11:18:31;28.67;;;16.35;;
42294;SDS011;27947;47.556;18.718;2023-12-20T11:21:04;30.15;;;16.60;;
42294;SDS011;27947;47.556;18.718;2023-12-20T11:23:30;33.33;;;17.98;;
42294;SDS011;27947;47.556;18.718;2023-12-20T11:25:56;30.20;;;17.15;;
42294;SDS011;27947;47.556;18.718;2023-12-20T11:28:24;29.20;;;16.73;;
42294;SDS011;27947;47.556;18.718;2023-12-20T11:30:53;31.00;;;17.77;;
42294;SDS011;27947;47.556;18.718;2023-12-20T11:33:23;34.03;;;17.95;;
42294;SDS011;27947;47.556;18.718;2023-12-20T11:35:48;33.25;;;18.65;;
42294;SDS011;27947;47.556;18.718;2023-12-20T11:38:14;32.15;;;17.98;;
42294;SDS011;27947;47.556;18.718;2023-12-20T11:40:41;29.88;;;16.80;;
42294;SDS011;27947;47.556;18.718;2023-12-20T11:43:06;33.88;;;19.73;;
42294;SDS011;27947;47.556;18.718;2023-12-20T11:45:31;29.60;;;16.65;;
42294;SDS011;27947;47.556;18.718;2023-12-20T11:47:57;29.35;;;17.02;;
42294;SDS011;27947;47.556;18.718;2023-12-20T11:50:23;29.83;;;16.85;;
42294;SDS011;27947;47.556;18.718;2023-12-20T11:52:49;24.17;;;14.65;;
42294;SDS011;27947;47.556;18.718;2023-12-20T11:55:14;25.85;;;15.20;;
42294;SDS011;27947;47.556;18.718;2023-12-20T11:57:40;27.77;;;16.42;;
42294;SDS011;27947;47.556;18.718;2023-12-20T12:00:05;27.48;;;15.73;;
42294;SDS011;27947;47.556;18.718;2023-12-20T12:02:40;24.00;;;14.48;;
42294;SDS011;27947;47.556;18.718;2023-12-20T12:05:06;24.23;;;14.93;;
42294;SDS011;27947;47.556;18.718;2023-12-20T12:07:31;27.10;;;14.68;;
42294;SDS011;27947;47.556;18.718;2023-12-20T12:09:57;23.70;;;14.05;;
42294;SDS011;27947;47.556;18.718;2023-12-20T12:12:23;24.13;;;14.05;;
42294;SDS011;27947;47.556;18.718;2023-12-20T12:14:50;22.02;;;12.50;;
42294;SDS011;27947;47.556;18.718;2023-12-20T12:17:15;20.90;;;12.23;;
42294;SDS011;27947;47.556;18.718;2023-12-20T12:19:41;17.48;;;11.02;;
42294;SDS011;27947;47.556;18.718;2023-12-20T12:22:07;18.25;;;11.40;;
42294;SDS011;27947;47.556;18.718;2023-12-20T12:24:34;15.50;;;10.48;;
42294;SDS011;27947;47.556;18.718;2023-12-20T12:26:59;20.85;;;11.35;;
42294;SDS011;27947;47.556;18.718;2023-12-20T12:29:25;17.75;;;10.60;;
42294;SDS011;27947;47.556;18.718;2023-12-20T12:31:50;18.92;;;10.48;;
42294;SDS011;27947;47.556;18.718;2023-12-20T12:34:16;17.35;;;11.02;;
42294;SDS011;27947;47.556;18.718;2023-12-20T12:36:42;19.83;;;10.43;;
42294;SDS011;27947;47.556;18.718;2023-12-20T12:39:08;16.75;;;10.40;;
42294;SDS011;27947;47.556;18.718;2023-12-20T12:41:33;16.52;;;9.95;;
42294;SDS011;27947;47.556;18.718;2023-12-20T12:43:58;16.10;;;9.93;;
42294;SDS011;27947;47.556;18.718;2023-12-20T12:46:24;16.55;;;10.27;;
42294;SDS011;27947;47.556;18.718;2023-12-20T12:48:49;22.30;;;11.75;;
42294;SDS011;27947;47.556;18.718;2023-12-20T12:51:15;16.48;;;10.23;;
42294;SDS011;27947;47.556;18.718;2023-12-20T12:53:41;21.45;;;11.57;;
42294;SDS011;27947;47.556;18.718;2023-12-20T12:56:06;21.83;;;12.07;;
42294;SDS011;27947;47.556;18.718;2023-12-20T12:58:32;20.73;;;11.35;;
42294;SDS011;27947;47.556;18.718;2023-12-20T13:00:57;19.17;;;11.38;;
42294;SDS011;27947;47.556;18.718;2023-12-20T13:03:22;19.77;;;11.10;;
42294;SDS011;27947;47.556;18.718;2023-12-20T13:05:48;20.98;;;11.73;;
42294;SDS011;27947;47.556;18.718;2023-12-20T13:08:13;19.20;;;10.70;;
42294;SDS011;27947;47.556;18.718;2023-12-20T13:10:39;25.85;;;13.02;;
42294;SDS011;27947;47.556;18.718;2023-12-20T13:13:04;21.77;;;11.48;;
42294;SDS011;27947;47.556;18.718;2023-12-20T13:15:29;22.13;;;12.70;;
42294;SDS011;27947;47.556;18.718;2023-12-20T13:17:55;23.48;;;12.05;;
42294;SDS011;27947;47.556;18.718;2023-12-20T13:20:20;21.25;;;12.40;;
42294;SDS011;27947;47.556;18.718;2023-12-20T13:22:47;22.33;;;12.82;;
42294;SDS011;27947;47.556;18.718;2023-12-20T13:25:12;23.13;;;13.13;;
42294;SDS011;27947;47.556;18.718;2023-12-20T13:27:38;22.75;;;12.57;;
42294;SDS011;27947;47.556;18.718;2023-12-20T13:30:03;23.75;;;12.32;;
42294;SDS011;27947;47.556;18.718;2023-12-20T13:32:29;21.73;;;12.20;;
42294;SDS011;27947;47.556;18.718;2023-12-20T13:34:54;21.13;;;12.48;;
42294;SDS011;27947;47.556;18.718;2023-12-20T13:37:20;21.85;;;12.82;;
42294;SDS011;27947;47.556;18.718;2023-12-20T13:39:45;23.10;;;12.73;;
42294;SDS011;27947;47.556;18.718;2023-12-20T13:42:11;24.40;;;13.05;;
42294;SDS011;27947;47.556;18.718;2023-12-20T13:44:36;19.38;;;10.95;;
42294;SDS011;27947;47.556;18.718;2023-12-20T13:47:01;20.05;;;12.20;;
42294;SDS011;27947;47.556;18.718;2023-12-20T13:49:28;20.58;;;11.35;;
42294;SDS011;27947;47.556;18.718;2023-12-20T13:51:53;21.92;;;11.35;;
42294;SDS011;27947;47.556;18.718;2023-12-20T13:54:20;22.42;;;11.43;;
42294;SDS011;27947;47.556;18.718;2023-12-20T13:56:46;20.40;;;11.38;;